Time;durP1;ratioP1;P1;durP2;ratioP2;P2;SDS_P1;SDS_P2;PMS_P1;PMS_P2;Temp;Humidity;BMP_temperature;BMP_pressure;BME280_temperature;BME280_humidity;BME280_pressure;Samples;Min_cycle;Max_cycle;Signal;HPM_P1;HPM_P2
2022/10/23 00:04:34;;;;;;;344.05;28.60;;;;;12.60;96559.00;;;;8331544;28;20224;-70
2022/10/23 00:08:37;;;;;;;230.48;26.38;;;;;12.60;96559.00;;;;8330018;28;20228;-69
2022/10/23 00:12:40;;;;;;;431.08;31.60;;;;;12.60;96560.00;;;;8330242;28;20240;-70
2022/10/23 00:16:45;;;;;;;327.67;30.52;;;;;12.60;96560.00;;;;8330766;28;20220;-70
2022/10/23 00:20:48;;;;;;;144.15;20.77;;;;;12.50;96559.00;;;;8330046;28;20255;-70
2022/10/23 00:24:52;;;;;;;541.47;34.83;;;;;12.60;96564.00;;;;8329450;28;20274;-69
2022/10/23 00:28:55;;;;;;;391.80;31.27;;;;;12.50;96565.00;;;;8295581;28;20214;-70
2022/10/23 00:33:33;;;;;;;312.80;28.30;;;;;12.50;96567.00;;;;8297532;28;20243;-70
2022/10/23 00:37:37;;;;;;;302.02;26.50;;;;;12.50;96567.00;;;;8296814;28;20244;-69
2022/10/23 00:41:40;;;;;;;257.92;25.27;;;;;12.50;96556.00;;;;8296986;28;20584;-69
2022/10/23 00:46:13;;;;;;;212.73;24.50;;;;;12.50;96559.00;;;;8297297;28;20665;-69
2022/10/23 00:50:19;;;;;;;540.90;34.83;;;;;12.60;96557.00;;;;8296248;28;20213;-69
2022/10/23 00:54:26;;;;;;;328.58;27.15;;;;;12.50;96564.00;;;;8296516;28;20262;-69
2022/10/23 00:59:03;;;;;;;396.65;28.70;;;;;12.50;96570.00;;;;8295152;28;20280;-70
2022/10/23 01:03:06;;;;;;;348.30;28.77;;;;;12.50;96570.00;;;;8296505;28;20651;-69
2022/10/23 01:07:15;;;;;;;313.23;28.42;;;;;12.60;96565.00;;;;8295749;28;20226;-69
2022/10/23 01:11:24;;;;;;;456.23;32.80;;;;;12.60;96558.00;;;;8296418;28;20626;-70
2022/10/23 01:15:37;;;;;;;465.33;31.92;;;;;12.60;96552.00;;;;8295631;28;20267;-69
2022/10/23 01:20:11;;;;;;;491.10;34.35;;;;;12.60;96549.00;;;;8296704;28;20229;-69
2022/10/23 01:24:27;;;;;;;455.85;34.20;;;;;12.60;96545.00;;;;8295709;28;20513;-68
2022/10/23 01:28:38;;;;;;;256.45;25.65;;;;;12.60;96542.00;;;;8295800;28;20217;-69
2022/10/23 01:32:46;;;;;;;290.35;26.52;;;;;12.70;96548.00;;;;8295613;28;20651;-69
2022/10/23 01:36:52;;;;;;;256.65;24.27;;;;;12.80;96539.00;;;;8296071;28;20235;-69
2022/10/23 01:41:01;;;;;;;440.88;32.38;;;;;12.80;96524.00;;;;8295384;28;20228;-69
2022/10/23 01:45:11;;;;;;;508.27;37.28;;;;;12.80;96529.00;;;;8295747;28;20220;-69
2022/10/23 01:49:42;;;;;;;356.38;29.15;;;;;12.80;96524.00;;;;8295518;28;20231;-69
2022/10/23 01:53:47;;;;;;;411.90;32.67;;;;;12.90;96516.00;;;;8302229;28;20228;-69
2022/10/23 01:57:52;;;;;;;381.20;30.50;;;;;12.90;96527.00;;;;8302173;28;20552;-69
2022/10/23 02:02:32;;;;;;;541.17;38.17;;;;;13.00;96517.00;;;;8301594;28;20232;-69
2022/10/23 02:06:35;;;;;;;424.10;33.15;;;;;13.00;96523.00;;;;8301291;28;20229;-69
2022/10/23 02:10:47;;;;;;;451.60;33.30;;;;;13.00;96526.00;;;;8301644;28;20666;-69
2022/10/23 02:15:18;;;;;;;509.60;33.90;;;;;13.00;96516.00;;;;8301552;28;20611;-68
2022/10/23 02:19:29;;;;;;;563.97;35.13;;;;;13.00;96516.00;;;;8301671;28;20227;-68
2022/10/23 02:23:35;;;;;;;558.33;39.00;;;;;13.00;96510.00;;;;8301026;28;20228;-68
2022/10/23 02:27:42;;;;;;;376.10;28.73;;;;;13.00;96511.00;;;;8300751;28;20668;-69
2022/10/23 02:31:46;;;;;;;486.83;35.78;;;;;13.10;96518.00;;;;8301165;28;20738;-69
2022/10/23 02:35:51;;;;;;;340.88;30.92;;;;;13.10;96503.00;;;;8301168;28;20233;-68
2022/10/23 02:39:54;;;;;;;447.95;34.85;;;;;13.10;96501.00;;;;8300265;28;20227;-68
2022/10/23 02:44:31;;;;;;;461.33;37.08;;;;;13.00;96505.00;;;;8300479;28;20240;-68
2022/10/23 02:48:42;;;;;;;343.05;32.25;;;;;13.00;96503.00;;;;8300382;28;20236;-69
2022/10/23 02:52:56;;;;;;;276.05;27.45;;;;;13.00;96502.00;;;;8300355;28;20234;-69
2022/10/23 02:57:04;;;;;;;268.25;26.67;;;;;13.00;96496.00;;;;8300306;28;20218;-68
2022/10/23 03:01:11;;;;;;;438.52;36.83;;;;;13.00;96476.00;;;;8299033;28;20227;-68
2022/10/23 03:05:18;;;;;;;435.98;33.55;;;;;13.00;96469.00;;;;8299810;28;20263;-68
2022/10/23 03:09:53;;;;;;;423.25;34.92;;;;;12.90;96476.00;;;;8300644;28;20243;-68
2022/10/23 03:13:56;;;;;;;406.95;30.85;;;;;12.90;96472.00;;;;8300369;28;20228;-68
2022/10/23 03:18:33;;;;;;;537.15;40.55;;;;;13.00;96484.00;;;;8299569;28;20234;-68
2022/10/23 03:22:37;;;;;;;271.00;26.42;;;;;13.00;96489.00;;;;8299074;28;20236;-68
2022/10/23 03:27:13;;;;;;;445.30;36.08;;;;;13.00;96503.00;;;;8300186;28;20603;-68
2022/10/23 03:31:18;;;;;;;523.13;37.15;;;;;13.00;96494.00;;;;8299357;28;20547;-68
2022/10/23 03:35:21;;;;;;;656.75;40.92;;;;;13.00;96498.00;;;;8298887;28;20245;-68
2022/10/23 03:39:57;;;;;;;482.88;35.78;;;;;13.00;96494.00;;;;8299085;28;20687;-68
2022/10/23 03:44:00;;;;;;;612.40;38.65;;;;;13.00;96502.00;;;;8298861;28;20221;-68
2022/10/23 03:48:37;;;;;;;355.92;28.75;;;;;13.00;96483.00;;;;8298259;28;20262;-68
2022/10/23 03:52:42;;;;;;;273.95;26.95;;;;;12.90;96487.00;;;;8298146;28;20240;-68
2022/10/23 03:57:16;;;;;;;393.35;32.08;;;;;12.90;96483.00;;;;8298571;28;20259;-68
2022/10/23 04:01:19;;;;;;;395.63;34.88;;;;;12.90;96484.00;;;;8297677;28;20236;-68
2022/10/23 04:05:53;;;;;;;570.35;38.90;;;;;12.80;96474.00;;;;8297790;28;20281;-68
2022/10/23 04:09:58;;;;;;;395.92;34.72;;;;;12.80;96469.00;;;;8296666;28;20233;-68
2022/10/23 04:14:32;;;;;;;428.80;33.65;;;;;12.80;96466.00;;;;8297112;28;20240;-69
2022/10/23 04:18:35;;;;;;;510.13;37.88;;;;;12.80;96474.00;;;;8297816;28;20228;-68
2022/10/23 04:22:38;;;;;;;332.45;27.02;;;;;12.80;96473.00;;;;8297062;28;20229;-68
2022/10/23 04:31:40;;;;;;;317.48;29.10;;;;;12.70;96483.00;;;;8297041;28;20518;-68
2022/10/23 04:36:14;;;;;;;164.75;23.50;;;;;12.70;96476.00;;;;8297363;28;20243;-68
2022/10/23 04:40:17;;;;;;;123.88;23.15;;;;;12.70;96472.00;;;;8296905;28;20221;-68
2022/10/23 04:44:33;;;;;;;96.75;21.52;;;;;12.60;96473.00;;;;8297223;28;20230;-68
2022/10/23 04:48:38;;;;;;;127.18;24.65;;;;;12.60;96486.00;;;;8296199;28;20231;-68
2022/10/23 04:52:41;;;;;;;116.63;22.35;;;;;12.60;96496.00;;;;8296835;28;20229;-68
2022/10/23 04:56:45;;;;;;;116.97;23.02;;;;;12.50;96480.00;;;;8296844;28;20229;-68
2022/10/23 05:00:49;;;;;;;67.87;19.07;;;;;12.40;96489.00;;;;8296752;28;20286;-68
2022/10/23 05:04:53;;;;;;;70.97;18.63;;;;;12.40;96488.00;;;;8296441;28;20611;-68
2022/10/23 05:08:56;;;;;;;68.65;18.17;;;;;12.30;96469.00;;;;8296786;28;20651;-68
2022/10/23 05:12:59;;;;;;;78.53;18.27;;;;;12.20;96456.00;;;;8295960;28;20225;-68
2022/10/23 05:17:09;;;;;;;59.88;17.60;;;;;12.20;96472.00;;;;8296413;28;20218;-68
2022/10/23 05:21:16;;;;;;;61.50;17.67;;;;;12.10;96459.00;;;;8295043;28;20217;-69
2022/10/23 05:25:19;;;;;;;85.53;18.35;;;;;12.00;96459.00;;;;8295219;28;20713;-69
2022/10/23 05:29:22;;;;;;;161.38;22.23;;;;;12.00;96457.00;;;;8295940;28;20229;-69
2022/10/23 05:34:00;;;;;;;193.07;23.48;;;;;12.00;96473.00;;;;8296221;28;20248;-69
2022/10/23 05:38:06;;;;;;;183.10;23.63;;;;;12.00;96460.00;;;;8295309;28;20220;-68
2022/10/23 05:42:44;;;;;;;159.23;23.08;;;;;12.00;96470.00;;;;8294569;28;20282;-69
2022/10/23 05:46:47;;;;;;;162.13;24.05;;;;;12.00;96472.00;;;;8295281;28;20656;-68
2022/10/23 05:51:24;;;;;;;255.90;25.52;;;;;12.10;96474.00;;;;8295748;28;20225;-69
2022/10/23 05:55:28;;;;;;;273.85;26.38;;;;;12.10;96475.00;;;;8295358;28;20236;-68
2022/10/23 06:00:02;;;;;;;270.67;29.05;;;;;12.10;96469.00;;;;8295856;28;20220;-68
2022/10/23 06:04:39;;;;;;;426.73;33.83;;;;;12.20;96475.00;;;;8294182;28;20250;-69
2022/10/23 06:08:42;;;;;;;222.82;26.40;;;;;12.30;96466.00;;;;8294888;28;20274;-69
2022/10/23 06:13:20;;;;;;;286.98;28.30;;;;;12.40;96468.00;;;;8294375;28;20230;-69
2022/10/23 06:17:23;;;;;;;266.38;27.00;;;;;12.40;96464.00;;;;8294751;28;20596;-69
2022/10/23 06:22:00;;;;;;;277.70;27.45;;;;;12.50;96462.00;;;;8294234;28;20251;-69
2022/10/23 06:26:05;;;;;;;494.50;38.13;;;;;12.60;96473.00;;;;8293922;28;20272;-69
2022/10/23 06:30:40;;;;;;;295.23;27.08;;;;;12.60;96464.00;;;;8294513;28;20213;-69
2022/10/23 06:35:14;;;;;;;385.52;30.88;;;;;12.70;96478.00;;;;8291556;28;20220;-69
2022/10/23 06:39:17;;;;;;;297.27;26.98;;;;;12.80;96474.00;;;;8300745;28;20221;-69
2022/10/23 06:43:54;;;;;;;247.05;21.98;;;;;12.70;96468.00;;;;8299961;28;20681;-69
2022/10/23 06:47:58;;;;;;;349.63;27.88;;;;;12.70;96461.00;;;;8300730;28;20635;-70
2022/10/23 06:52:01;;;;;;;411.33;27.52;;;;;12.80;96452.00;;;;8300293;28;20229;-70
2022/10/23 06:56:06;;;;;;;366.08;26.75;;;;;12.80;96450.00;;;;8300439;28;20567;-69
2022/10/23 07:00:40;;;;;;;434.33;28.77;;;;;12.90;96472.00;;;;8299247;28;20224;-69
2022/10/23 07:05:18;;;;;;;438.23;27.05;;;;;13.00;96473.00;;;;8299841;28;20653;-70
2022/10/23 07:09:25;;;;;;;430.98;28.15;;;;;13.10;96473.00;;;;8299090;28;20224;-69
2022/10/23 07:13:41;;;;;;;465.20;28.95;;;;;13.40;96472.00;;;;8296750;28;20232;-70
2022/10/23 07:18:15;;;;;;;408.02;27.42;;;;;13.50;96473.00;;;;8299721;28;20259;-70
2022/10/23 07:22:53;;;;;;;336.25;28.38;;;;;13.60;96471.00;;;;8299775;28;20774;-70
2022/10/23 07:26:58;;;;;;;345.63;26.83;;;;;13.70;96471.00;;;;8299201;28;20602;-70
2022/10/23 07:31:32;;;;;;;236.57;21.23;;;;;13.70;96480.00;;;;8298607;28;20234;-71
2022/10/23 07:35:35;;;;;;;235.43;23.08;;;;;13.90;96473.00;;;;8297787;28;20229;-71
2022/10/23 07:40:12;;;;;;;231.68;23.58;;;;;14.00;96473.00;;;;8298043;28;20228;-72
2022/10/23 07:44:16;;;;;;;86.18;19.40;;;;;14.10;96474.00;;;;8297737;28;20221;-71
2022/10/23 07:48:50;;;;;;;95.20;20.63;;;;;14.10;96464.00;;;;8297635;28;20234;-71
2022/10/23 07:52:53;;;;;;;88.40;20.35;;;;;14.20;96467.00;;;;8298434;28;20277;-71
2022/10/23 07:56:56;;;;;;;74.18;19.65;;;;;14.20;96469.00;;;;8298274;28;20225;-71
2022/10/23 08:01:36;;;;;;;57.25;18.50;;;;;14.30;96457.00;;;;8297594;28;20218;-71
2022/10/23 08:05:40;;;;;;;67.78;20.40;;;;;14.50;96466.00;;;;8297874;28;20291;-72
2022/10/23 08:09:43;;;;;;;84.70;21.83;;;;;14.50;96451.00;;;;8301898;28;20217;-73
2022/10/23 08:13:46;;;;;;;77.85;21.08;;;;;14.70;96451.00;;;;8297099;28;20240;-72
2022/10/23 08:17:50;;;;;;;76.45;21.10;;;;;14.70;96444.00;;;;8296961;28;20218;-72
2022/10/23 08:21:56;;;;;;;70.47;19.88;;;;;14.70;96439.00;;;;8297118;28;20222;-72
2022/10/23 08:26:01;;;;;;;69.35;20.52;;;;;14.80;96450.00;;;;8296116;28;20229;-72
2022/10/23 08:30:05;;;;;;;82.53;20.42;;;;;14.90;96457.00;;;;8297536;28;20222;-72
2022/10/23 08:34:09;;;;;;;56.63;17.17;;;;;15.00;96464.00;;;;8296292;28;20224;-73
2022/10/23 08:38:13;;;;;;;51.20;15.80;;;;;15.00;96460.00;;;;8296843;28;20218;-73
2022/10/23 08:42:53;;;;;;;56.65;14.95;;;;;14.80;96460.00;;;;8295658;28;20225;-73
2022/10/23 08:47:27;;;;;;;45.08;14.88;;;;;14.70;96468.00;;;;8296133;28;20221;-73
2022/10/23 08:51:36;;;;;;;38.60;14.20;;;;;14.80;96456.00;;;;8295912;28;20284;-73
2022/10/23 08:55:44;;;;;;;41.03;14.77;;;;;14.90;96461.00;;;;8295864;28;20636;-73
2022/10/23 09:00:14;;;;;;;81.53;16.52;;;;;14.90;96455.00;;;;8295952;28;20252;-74
2022/10/23 09:04:46;;;;;;;104.72;15.85;;;;;14.80;96445.00;;;;8295690;28;20217;-74
2022/10/23 09:08:59;;;;;;;38.42;13.60;;;;;14.80;96449.00;;;;8328414;28;20217;-75
2022/10/23 09:13:18;;;;;;;29.52;12.23;;;;;15.00;96439.00;;;;8327872;28;20239;-74
2022/10/23 09:17:26;;;;;;;24.60;11.45;;;;;15.10;96441.00;;;;8298373;28;20218;-77
2022/10/23 09:21:48;;;;;;;30.38;11.45;;;;;15.10;96434.00;;;;8295179;28;20333;-77
2022/10/23 09:25:55;;;;;;;33.83;12.18;;;;;15.10;96446.00;;;;8295280;28;20308;-77
2022/10/23 09:29:59;;;;;;;32.70;11.43;;;;;15.20;96448.00;;;;8294435;28;20222;-77
2022/10/23 09:34:03;;;;;;;47.72;12.90;;;;;15.10;96450.00;;;;8295072;28;20587;-77
2022/10/23 09:38:48;;;;;;;33.65;11.95;;;;;14.80;96445.00;;;;8294410;28;20257;-77
2022/10/23 09:43:22;;;;;;;40.58;12.35;;;;;14.70;96439.00;;;;8294510;28;20222;-77
2022/10/23 09:47:27;;;;;;;32.30;12.00;;;;;14.70;96446.00;;;;8326692;28;20255;-76
2022/10/23 09:51:30;;;;;;;29.85;13.02;;;;;14.80;96434.00;;;;8326906;28;20220;-76
2022/10/23 09:56:24;;;;;;;35.47;13.63;;;;;14.80;96439.00;;;;8326872;28;20697;-77
2022/10/23 10:00:47;;;;;;;30.67;13.05;;;;;14.90;96438.00;;;;8324253;28;20304;-77
2022/10/23 10:05:22;;;;;;;29.00;12.90;;;;;15.00;96434.00;;;;8296955;28;20245;-77
2022/10/23 10:09:57;;;;;;;29.50;13.25;;;;;15.20;96437.00;;;;8326985;28;20225;-77
2022/10/23 10:14:40;;;;;;;29.90;13.50;;;;;15.40;96429.00;;;;8333083;28;20635;-77
2022/10/23 10:19:15;;;;;;;23.65;12.48;;;;;15.70;96427.00;;;;8333972;28;20216;-77
2022/10/23 10:23:47;;;;;;;29.27;14.10;;;;;16.00;96406.00;;;;8324916;28;20217;-77
2022/10/23 10:28:17;;;;;;;27.58;12.68;;;;;16.20;96406.00;;;;8333686;28;20220;-77
2022/10/23 10:32:57;;;;;;;23.73;12.27;;;;;16.30;96401.00;;;;8330926;28;20690;-77
2022/10/23 10:37:37;;;;;;;25.55;12.73;;;;;16.40;96398.00;;;;8332509;28;20232;-76
2022/10/23 10:42:24;;;;;;;19.98;12.02;;;;;16.30;96390.00;;;;8333157;28;20221;-76
2022/10/23 10:46:52;;;;;;;20.50;11.15;;;;;16.30;96406.00;;;;8332240;28;20218;-77
2022/10/23 10:51:30;;;;;;;21.98;11.25;;;;;16.40;96394.00;;;;8332820;28;20712;-77
2022/10/23 10:56:08;;;;;;;19.88;10.75;;;;;16.50;96383.00;;;;8332387;28;20636;-76
2022/10/23 11:00:41;;;;;;;22.02;11.38;;;;;16.60;96368.00;;;;8333174;28;20214;-77
2022/10/23 11:05:22;;;;;;;18.92;11.02;;;;;16.80;96367.00;;;;8332497;28;20259;-77
2022/10/23 11:09:54;;;;;;;17.17;10.13;;;;;16.90;96371.00;;;;8328345;28;20639;-78
2022/10/23 11:14:33;;;;;;;18.15;10.38;;;;;17.00;96363.00;;;;8301761;28;20222;-77
2022/10/23 11:19:12;;;;;;;16.65;10.32;;;;;17.20;96357.00;;;;8298730;28;20222;-77
2022/10/23 11:23:51;;;;;;;19.10;10.73;;;;;17.00;96347.00;;;;8298459;28;20224;-77
2022/10/23 11:38:20;;;;;;;17.27;10.55;;;;;17.10;96345.00;;;;8297894;28;20272;-78
2022/10/23 11:42:54;;;;;;;16.98;10.57;;;;;17.30;96334.00;;;;8297793;28;20229;-75
2022/10/23 11:47:33;;;;;;;16.48;9.43;;;;;17.50;96327.00;;;;8330981;28;20213;-76
2022/10/23 11:52:23;;;;;;;15.82;9.70;;;;;17.60;96301.00;;;;8300272;28;20640;-76
2022/10/23 11:56:55;;;;;;;21.60;10.48;;;;;17.80;96294.00;;;;8298283;28;20229;-76
2022/10/23 12:01:27;;;;;;;19.05;10.30;;;;;17.90;96284.00;;;;8297987;28;20238;-75
2022/10/23 12:05:58;;;;;;;17.85;9.75;;;;;17.80;96276.00;;;;8297470;28;20229;-75
2022/10/23 12:10:36;;;;;;;15.98;9.85;;;;;17.90;96271.00;;;;8297632;28;20214;-76
2022/10/23 12:15:25;;;;;;;17.45;9.98;;;;;17.90;96266.00;;;;8297997;28;20233;-75
2022/10/23 12:19:50;;;;;;;18.35;10.15;;;;;17.90;96261.00;;;;8228917;28;20222;-75
2022/10/23 12:24:30;;;;;;;15.57;8.05;;;;;17.80;96248.00;;;;8293681;28;20290;-75
2022/10/23 12:29:07;;;;;;;16.48;9.18;;;;;17.70;96260.00;;;;8296967;28;20222;-75
2022/10/23 12:33:43;;;;;;;14.68;9.32;;;;;17.80;96260.00;;;;8296067;28;20222;-75
2022/10/23 12:38:14;;;;;;;16.25;8.52;;;;;18.20;96258.00;;;;8296314;28;20224;-76
2022/10/23 12:42:56;;;;;;;16.92;8.55;;;;;18.50;96244.00;;;;8297466;28;20244;-76
2022/10/23 12:47:27;;;;;;;17.73;8.50;;;;;18.60;96247.00;;;;8293985;28;20233;-75
2022/10/23 12:52:05;;;;;;;16.58;9.23;;;;;18.60;96243.00;;;;8293858;28;20221;-76
2022/10/23 12:56:24;;;;;;;12.40;8.25;;;;;18.60;96237.00;;;;8296711;28;20631;-76
2022/10/23 13:01:00;;;;;;;14.15;8.68;;;;;18.70;96210.00;;;;8295872;28;20218;-76
2022/10/23 13:05:35;;;;;;;13.50;8.85;;;;;18.80;96194.00;;;;8295333;28;20226;-76
2022/10/23 13:10:13;;;;;;;12.73;7.60;;;;;19.00;96186.00;;;;8282901;28;20221;-76
2022/10/23 13:15:02;;;;;;;16.20;9.02;;;;;19.20;96192.00;;;;8293838;28;20309;-76
2022/10/23 13:19:26;;;;;;;15.07;8.70;;;;;19.20;96198.00;;;;8225253;28;20582;-75
2022/10/23 13:24:00;;;;;;;13.95;9.23;;;;;19.10;96189.00;;;;8289974;28;20252;-77
2022/10/23 13:33:37;;;;;;;12.02;8.50;;;;;19.00;96195.00;;;;8295129;28;20656;-80
2022/10/23 13:38:12;;;;;;;14.80;8.13;;;;;19.00;96191.00;;;;8294570;28;20239;-79
2022/10/23 13:42:49;;;;;;;19.15;9.65;;;;;19.00;96187.00;;;;8295248;28;20238;-79
2022/10/23 13:47:26;;;;;;;19.42;9.32;;;;;19.00;96178.00;;;;8286746;28;20225;-79
2022/10/23 13:52:06;;;;;;;17.67;9.23;;;;;19.00;96183.00;;;;8294553;28;20218;-77
2022/10/23 13:56:42;;;;;;;18.63;9.57;;;;;19.00;96177.00;;;;8292740;28;20301;-77
2022/10/23 14:01:20;;;;;;;16.05;8.80;;;;;19.00;96177.00;;;;8295050;28;20292;-78
2022/10/23 14:05:23;;;;;;;13.60;8.55;;;;;19.10;96180.00;;;;8294156;28;20234;-84
2022/10/23 14:09:26;;;;;;;16.70;8.68;;;;;19.20;96182.00;;;;8294800;28;20537;-82
2022/10/23 14:14:03;;;;;;;15.02;9.02;;;;;19.20;96180.00;;;;8289608;28;20242;-86
2022/10/23 14:18:42;;;;;;;17.42;8.88;;;;;19.20;96182.00;;;;8294731;28;20647;-81
2022/10/23 14:23:16;;;;;;;14.98;8.93;;;;;19.10;96174.00;;;;8293597;28;20225;-81
2022/10/23 14:32:52;;;;;;;15.77;8.30;;;;;19.10;96182.00;;;;8293827;28;20312;-82
2022/10/23 14:37:28;;;;;;;16.38;8.05;;;;;19.10;96171.00;;;;8293376;28;20304;-82
2022/10/23 14:42:07;;;;;;;12.02;7.82;;;;;19.20;96169.00;;;;8294034;28;20230;-83
2022/10/23 14:46:44;;;;;;;14.35;8.48;;;;;19.20;96165.00;;;;8293146;28;20228;-84
2022/10/23 14:51:22;;;;;;;17.23;8.63;;;;;19.20;96158.00;;;;8293693;28;20237;-82
2022/10/23 14:56:00;;;;;;;12.75;8.38;;;;;19.00;96162.00;;;;8293537;28;20233;-81
2022/10/23 15:00:30;;;;;;;16.58;8.55;;;;;18.80;96150.00;;;;8299278;28;20529;-82
2022/10/23 15:05:07;;;;;;;14.00;8.23;;;;;18.70;96151.00;;;;8298691;28;20572;-81
2022/10/23 15:09:12;;;;;;;13.68;7.95;;;;;18.60;96146.00;;;;8298829;28;20222;-81
2022/10/23 15:13:46;;;;;;;13.40;7.97;;;;;18.50;96148.00;;;;8297534;28;20225;-81
2022/10/23 15:18:22;;;;;;;13.32;8.32;;;;;18.40;96137.00;;;;8298550;28;20237;-83
2022/10/23 15:23:00;;;;;;;11.73;8.07;;;;;18.30;96135.00;;;;8298515;28;20646;-84
2022/10/23 15:27:35;;;;;;;13.73;8.20;;;;;18.20;96127.00;;;;8297432;28;20233;-82
2022/10/23 15:31:44;;;;;;;15.52;8.50;;;;;18.20;96135.00;;;;8297846;28;20552;-82
2022/10/23 15:35:48;;;;;;;14.95;8.40;;;;;18.00;96136.00;;;;8298012;28;20622;-82
2022/10/23 15:40:25;;;;;;;11.05;7.68;;;;;17.90;96119.00;;;;8298290;28;20226;-82
2022/10/23 15:45:04;;;;;;;17.48;9.50;;;;;17.70;96134.00;;;;8296638;28;20222;-82
2022/10/23 15:49:38;;;;;;;35.55;16.42;;;;;17.40;96122.00;;;;8297460;28;20229;-81
2022/10/23 15:54:15;;;;;;;20.33;11.75;;;;;17.20;96116.00;;;;8297394;28;20233;-81
2022/10/23 15:58:49;;;;;;;18.20;10.10;;;;;17.00;96121.00;;;;8328126;28;20666;-81
2022/10/23 16:03:25;;;;;;;16.25;9.43;;;;;16.80;96125.00;;;;8298642;28;20222;-80
2022/10/23 16:08:05;;;;;;;21.83;11.23;;;;;16.70;96121.00;;;;8297224;28;20229;-81
2022/10/23 16:12:42;;;;;;;16.30;9.30;;;;;16.50;96110.00;;;;8300332;28;20230;-81
2022/10/23 16:17:19;;;;;;;14.65;9.02;;;;;16.40;96105.00;;;;8293763;28;20643;-80
2022/10/23 16:21:24;;;;;;;18.98;10.13;;;;;16.30;96101.00;;;;8296732;28;20268;-83
2022/10/23 16:25:29;;;;;;;13.63;7.60;;;;;16.20;96104.00;;;;8295997;28;20562;-78
2022/10/23 16:30:05;;;;;;;17.65;10.18;;;;;16.20;96108.00;;;;8299662;28;20225;-80
2022/10/23 16:34:38;;;;;;;17.63;8.10;;;;;16.10;96113.00;;;;8328696;28;20217;-79
2022/10/23 16:39:14;;;;;;;24.80;13.30;;;;;16.10;96113.00;;;;8327887;28;20624;-79
2022/10/23 16:43:51;;;;;;;15.52;10.02;;;;;16.10;96107.00;;;;8327712;28;20213;-80
2022/10/23 16:47:54;;;;;;;17.40;10.95;;;;;16.00;96117.00;;;;8361649;28;20229;-82
2022/10/23 16:52:32;;;;;;;31.77;16.38;;;;;16.00;96115.00;;;;8328121;28;20225;-78
2022/10/23 16:57:09;;;;;;;30.23;13.98;;;;;16.00;96111.00;;;;8328199;28;20251;-79
2022/10/23 17:01:46;;;;;;;23.58;14.30;;;;;16.00;96111.00;;;;8327617;28;20216;-79
2022/10/23 17:06:25;;;;;;;39.80;25.10;;;;;16.00;96116.00;;;;8361838;28;20236;-81
2022/10/23 17:11:03;;;;;;;33.45;17.65;;;;;16.00;96120.00;;;;8326104;28;20220;-80
2022/10/23 17:15:40;;;;;;;23.98;12.95;;;;;16.00;96121.00;;;;8327547;28;20283;-80
2022/10/23 17:20:17;;;;;;;23.77;14.18;;;;;16.00;96120.00;;;;8327083;28;20221;-80
2022/10/23 17:24:53;;;;;;;29.77;16.02;;;;;15.90;96117.00;;;;8328210;28;20213;-80
2022/10/23 17:29:32;;;;;;;495.63;321.27;;;;;15.90;96117.00;;;;8360216;28;20270;-80
2022/10/23 17:34:07;;;;;;;52.15;46.80;;;;;15.90;96101.00;;;;8359188;28;20220;-78
2022/10/23 17:38:42;;;;;;;224.35;114.07;;;;;15.90;96095.00;;;;8328123;28;20217;-79
2022/10/23 17:42:45;;;;;;;1881.18;687.17;;;;;15.90;96079.00;;;;8357913;28;20581;-81
2022/10/23 17:47:24;;;;;;;759.40;228.60;;;;;15.90;96088.00;;;;8360856;28;20717;-80
2022/10/23 17:52:00;;;;;;;91.07;38.25;;;;;15.90;96097.00;;;;8328208;28;20247;-78
2022/10/23 17:56:05;;;;;;;15.73;8.77;;;;;15.90;96104.00;;;;8360699;28;20558;-79
2022/10/23 18:00:39;;;;;;;18.83;12.60;;;;;15.90;96105.00;;;;8359911;28;20307;-79
2022/10/23 18:05:18;;;;;;;8.85;4.70;;;;;15.90;96112.00;;;;8359955;28;20262;-81
2022/10/23 18:09:51;;;;;;;4.85;4.35;;;;;16.00;96108.00;;;;8325220;28;20240;-78
2022/10/23 18:14:28;;;;;;;14.25;8.65;;;;;16.00;96108.00;;;;8326262;28;20254;-79
2022/10/23 18:18:34;;;;;;;6.70;3.55;;;;;16.10;96096.00;;;;8326646;28;20602;-80
2022/10/23 18:22:39;;;;;;;3.40;3.10;;;;;16.10;96099.00;;;;8326349;28;20221;-81
2022/10/23 18:27:12;;;;;;;9.40;6.50;;;;;16.10;96111.00;;;;8327264;28;20307;-81
2022/10/23 18:31:17;;;;;;;16.65;13.02;;;;;16.10;96144.00;;;;8326505;28;20267;-80
2022/10/23 18:35:51;;;;;;;50.53;44.95;;;;;16.10;96135.00;;;;8333381;28;20221;-80
2022/10/23 18:40:30;;;;;;;226.77;155.93;;;;;16.10;96146.00;;;;8365316;28;20266;-80
2022/10/23 18:45:04;;;;;;;32.50;24.67;;;;;16.10;96137.00;;;;8333229;28;20213;-79
2022/10/23 18:49:07;;;;;;;8.18;4.63;;;;;16.10;96105.00;;;;8332246;28;20224;-79
2022/10/23 18:53:45;;;;;;;5.22;3.90;;;;;16.00;96127.00;;;;8331869;28;20221;-80
2022/10/23 18:57:50;;;;;;;5.63;3.83;;;;;16.00;96093.00;;;;8324117;28;20226;-79
2022/10/23 19:01:53;;;;;;;3.30;3.00;;;;;16.00;96059.00;;;;8333196;28;20567;-80
2022/10/23 19:05:56;;;;;;;5.88;3.67;;;;;16.10;96066.00;;;;8329309;28;20222;-80
2022/10/23 19:10:01;;;;;;;4.82;3.22;;;;;16.00;96057.00;;;;8330605;28;20228;-79
2022/10/23 19:14:34;;;;;;;7.78;3.10;;;;;16.00;96054.00;;;;8332085;28;20712;-80
2022/10/23 19:19:15;;;;;;;7.40;3.38;;;;;16.00;96046.00;;;;8332002;28;20550;-79
2022/10/23 19:23:18;;;;;;;5.80;3.10;;;;;15.90;96044.00;;;;8331112;28;20233;-81
2022/10/23 19:27:55;;;;;;;7.88;3.28;;;;;16.00;96042.00;;;;8331924;28;20233;-80
2022/10/23 19:31:58;;;;;;;9.10;4.07;;;;;15.90;96040.00;;;;8331084;28;20217;-79
2022/10/23 19:36:03;;;;;;;6.18;3.70;;;;;15.90;96033.00;;;;8331916;28;20225;-78
2022/10/23 19:40:38;;;;;;;4.53;3.13;;;;;15.80;96036.00;;;;8324132;28;20316;-78
2022/10/23 19:45:15;;;;;;;7.22;2.97;;;;;15.80;96043.00;;;;8328876;28;20267;-77
2022/10/23 19:49:19;;;;;;;4.18;3.08;;;;;15.70;96066.00;;;;8329780;28;20224;-76
2022/10/23 19:53:57;;;;;;;3.13;2.83;;;;;15.70;96079.00;;;;8331149;28;20225;-76
2022/10/23 19:58:32;;;;;;;5.60;4.18;;;;;15.60;96087.00;;;;8330425;28;20234;-76
2022/10/23 20:02:37;;;;;;;3.70;3.30;;;;;15.70;96097.00;;;;8330567;28;20271;-76
2022/10/23 20:07:14;;;;;;;6.10;3.30;;;;;15.70;96090.00;;;;8330252;28;20224;-77
2022/10/23 20:11:51;;;;;;;7.13;3.00;;;;;15.70;96107.00;;;;8327537;28;20683;-77
2022/10/23 20:15:55;;;;;;;3.60;2.75;;;;;15.70;96112.00;;;;8330671;28;20528;-79
2022/10/23 20:19:58;;;;;;;5.63;2.97;;;;;15.80;96109.00;;;;8329879;28;20217;-79
2022/10/23 20:24:02;;;;;;;13.68;3.33;;;;;15.80;96123.00;;;;8323299;28;20309;-79
2022/10/23 20:28:36;;;;;;;6.85;3.38;;;;;15.90;96129.00;;;;8341905;28;20225;-79
2022/10/23 20:32:41;;;;;;;5.93;3.00;;;;;15.80;96141.00;;;;8328577;28;20217;-78
2022/10/23 20:36:47;;;;;;;4.05;2.83;;;;;15.80;96136.00;;;;8329412;28;20247;-78
2022/10/23 20:41:23;;;;;;;3.92;2.83;;;;;15.80;96142.00;;;;8329097;28;20256;-78
2022/10/23 20:45:26;;;;;;;5.95;3.42;;;;;15.90;96143.00;;;;8329332;28;20217;-78
2022/10/23 20:50:05;;;;;;;6.65;3.10;;;;;15.90;96156.00;;;;8328676;28;20233;-79
2022/10/23 20:54:08;;;;;;;5.90;3.15;;;;;15.90;96151.00;;;;8328831;28;20228;-78
2022/10/23 20:58:45;;;;;;;7.07;3.53;;;;;15.90;96159.00;;;;8323012;28;20225;-79
2022/10/23 21:03:22;;;;;;;7.03;3.22;;;;;15.90;96155.00;;;;8329106;28;20274;-79
2022/10/23 21:07:26;;;;;;;9.80;4.05;;;;;15.90;96148.00;;;;8327811;28;20225;-80
2022/10/23 21:11:59;;;;;;;6.28;3.35;;;;;15.80;96152.00;;;;8334139;28;20225;-80
2022/10/23 21:16:12;;;;;;;9.13;3.33;;;;;15.80;96180.00;;;;8328072;28;20261;-80
2022/10/23 21:20:15;;;;;;;5.55;3.22;;;;;15.70;96169.00;;;;8327574;28;20221;-81
2022/10/23 21:24:20;;;;;;;6.18;3.30;;;;;15.70;96177.00;;;;8325400;28;20217;-80
2022/10/23 21:28:23;;;;;;;3.63;3.30;;;;;15.60;96181.00;;;;8327898;28;20236;-81
2022/10/23 21:32:26;;;;;;;3.83;3.17;;;;;15.60;96167.00;;;;8327489;28;20225;-80
2022/10/23 21:36:32;;;;;;;6.25;3.42;;;;;15.60;96167.00;;;;8328163;28;20225;-81
2022/10/23 21:40:42;;;;;;;4.53;3.65;;;;;15.60;96173.00;;;;8327521;28;20267;-81
2022/10/23 21:44:46;;;;;;;9.35;3.58;;;;;15.60;96197.00;;;;8327577;28;20221;-80
2022/10/23 21:49:22;;;;;;;4.75;2.80;;;;;15.60;96194.00;;;;8326521;28;20232;-81